Detall de PIREP

Printer-friendly versionPDF version

[2013/05/14 08:02:00]
Flight IATA:CT0001
Pilot Number:042
Company ICAO:CAT
Aircraft Type:F70/A
PAX:20
Aircraft Registration:PFJ
Departing Airport: LEPA
Destination Airport: LEGE
Alternate Airport:LEBL
Online: VATSIM
Route:GALAT N861 LATRO H110 MAMUK
Flight Level:F240
No Slew and time accel
No pause
Crash detect
Detect pilot in Cockpit between each 30 and 45 minutes
08:02 Zero fuel Weight: 72666 Lbs, Fuel Weight: 22685 Lbs
08:02 VATSIM:LEPA 140730Z 05005KT 010V100 9999 FEW035 19/14 Q1015 NOSIG
08:02 VATSIM:LEGE 140730Z VRB01KT CAVOK 16/13 Q1015
08:03 VOICE CATALONIAN
08:07 Parking Brakes off
08:17 Take-off
08:17 Take off Weight: 94831 Lbs
08:17 Wind: 229º @ 007 Knots Heading: 058º
08:17 POS N39º 33´ 05´´ E002º 45´ 11´´
08:17 Gear Up: 173 Knots
08:17 Flaps:2 at 173 Knots
08:17 Flaps:1 at 177 Knots
08:18 Flaps:0 at 193 Knots
08:29 TOC
08:29 Fuel Weight: 20553 Lb
08:32 Wind:310º@045 Knots Heading: 345º Ground Speed: 391 Knots Altitude 24045 ft
08:45 TOD
08:45 Fuel Weight: 18927 Lb
08:47 Wind:312º@052 Knots Heading: 077º Ground Speed: 408 Knots Altitude 21984 ft
08:57 Flaps:1 at 223 Knots
08:59 Gear Down: 175 Knots
08:59 Flaps:2 at 175 Knots
08:59 Flaps:3 at 171 Knots
09:02 Wind:208º@009 Knots Heading: 196º Ground Speed: 152 Knots Altitude 583 ft
09:02 TouchDown:Rate -296 ft/min Speed: 128 Knots
09:02 VATSIM:LEGE 140830Z 16003KT 100V250 9999 FEW032 18/14 Q1014
09:02 Land
09:02 Wind:200º@009 Knots
09:02 Heading: 195º
09:02 Flight Duration: 00:45
09:02 Landing Weight: 90931 Lbs
09:02 POS N41º 53´ 55´´ E002º 45´ 34´´
09:05 Parking brakes on
09:05 Block to Block Duration: 00:58
09:05 Final Fuel: 18106 Lbls
09:05 Spent Fuel: 4578 Lbls
09:05 Flight Length: 240 NM
09:05 TOD Land Length: 78 NM

Exportar CSV

Powered by Drupal - Modified by Danger4k